This is the latest recevied weather packets stored in our database for station/object WK7G. If no packets are shown the sender has not sent any weather packets the latest 10 day(s).
| Time | Temp. | Humidity | Pressure | Rain* | Wind** | Luminosity | Snow |
|---|---|---|---|---|---|---|---|
| 1778108504 | 12.78° C | 37% | 1010.5 hPa | 0 mm | - | 142 W/m² | - |
| 1778108200 | 12.78° C | 36% | 1010.1 hPa | 0 mm | - | 164 W/m² | - |
| 1778107897 | 12.78° C | 39% | 1010.3 hPa | 0 mm | - | 147 W/m² | - |
| 1778107594 | 13.89° C | 35% | 1010.3 hPa | 0 mm | - | 120 W/m² | - |
| 1778107290 | 12.78° C | 38% | 1010.1 hPa | 0 mm | - | 573 W/m² | - |
| 1778106987 | 14.44° C | 37% | 1010.5 hPa | 0 mm | - | 564 W/m² | - |
| 1778106683 | 13.89° C | 36% | 1010.5 hPa | 0 mm | - | 570 W/m² | - |
| 1778106380 | 13.89° C | 36% | 1010.5 hPa | 0 mm | - | 573 W/m² | - |
| 1778106076 | 13.89° C | 35% | 1010.6 hPa | 0 mm | - | 599 W/m² | - |
| 1778105774 | 13.33° C | 35% | 1010.6 hPa | 0 mm | - | 600 W/m² | - |
| 1778105472 | 13.33° C | 37% | 1010.6 hPa | 0 mm | - | 601 W/m² | - |
| 1778105168 | 14.44° C | 36% | 1011 hPa | 0 mm | - | 601 W/m² | - |
| 1778104863 | 13.89° C | 38% | 1011 hPa | 0 mm | - | 610 W/m² | - |
| 1778104560 | 13.89° C | 34% | 1010.9 hPa | 0 mm | - | 631 W/m² | - |
| 1778104255 | 13.89° C | 36% | 1011.2 hPa | 0 mm | - | 626 W/m² | - |
| 1778103953 | 13.33° C | 35% | 1011.1 hPa | 0 mm | - | 629 W/m² | - |
| 1778103650 | 12.78° C | 36% | 1011 hPa | 0 mm | - | 619 W/m² | - |
| 1778103348 | 13.89° C | 35% | 1011.1 hPa | 0 mm | - | 624 W/m² | - |
| 1778103045 | 13.33° C | 33% | 1011.2 hPa | 0 mm | - | 623 W/m² | - |
| 1778102742 | 13.33° C | 34% | 1011.2 hPa | 0 mm | - | 645 W/m² | - |
| 1778102437 | 13.33° C | 32% | 1011.1 hPa | 0 mm | - | 645 W/m² | - |
| 1778102133 | 13.33° C | 34% | 1011.1 hPa | 0 mm | - | 649 W/m² | - |
| 1778101830 | 13.89° C | 36% | 1011.3 hPa | 0 mm | - | 673 W/m² | - |
| 1778101527 | 13.89° C | 34% | 1011.5 hPa | 0 mm | - | 656 W/m² | - |
| 1778101223 | 13.33° C | 35% | 1011.3 hPa | 0 mm | - | 676 W/m² | - |
* Rain latest hour (hover to see other rain measurements)
** Current wind speed in m/s (hover to see current wind gust speed)